createdAt,value
2018-04-25T00:01:18.431Z,4.67
2018-04-25T00:03:47.597Z,4.87
2018-04-25T00:06:17.578Z,4.60
2018-04-25T00:08:46.633Z,4.20
2018-04-25T00:11:15.910Z,4.23
2018-04-25T00:13:45.893Z,4.67
2018-04-25T00:16:14.947Z,4.77
2018-04-25T00:18:45.955Z,4.40
2018-04-25T00:21:16.033Z,4.13
2018-04-25T00:26:21.293Z,5.30
2018-04-25T00:28:57.309Z,5.07
2018-04-25T00:31:26.518Z,4.70
2018-04-25T00:33:55.581Z,4.90
2018-04-25T00:36:24.671Z,4.20
2018-04-25T00:41:32.930Z,5.00
2018-04-25T00:44:01.986Z,4.80
2018-04-25T00:46:31.074Z,4.57
2018-04-25T00:49:00.170Z,4.47
2018-04-25T00:51:29.224Z,4.93
2018-04-25T00:53:58.293Z,4.57
2018-04-25T00:56:27.321Z,4.80
2018-04-25T00:58:56.395Z,4.77
2018-04-25T01:01:26.345Z,5.23
2018-04-25T01:03:55.598Z,5.37
2018-04-25T01:06:24.662Z,4.40
2018-04-25T01:08:53.698Z,5.03
2018-04-25T01:11:23.640Z,6.80
2018-04-25T01:13:52.714Z,5.03
2018-04-25T01:16:21.802Z,5.30
2018-04-25T01:18:50.940Z,5.90
2018-04-25T01:21:19.978Z,5.13
2018-04-25T01:23:49.023Z,5.20
2018-04-25T01:26:18.181Z,4.07
2018-04-25T01:34:26.922Z,5.75
2018-04-25T01:37:08.306Z,5.07
2018-04-25T01:44:53.086Z,5.15
2018-04-25T01:50:37.041Z,4.95
2018-04-25T01:53:26.262Z,5.03
2018-04-25T02:01:20.349Z,5.50
2018-04-25T02:06:32.945Z,5.40
2018-04-25T02:09:01.974Z,4.53
2018-04-25T02:11:31.018Z,4.20
2018-04-25T02:14:00.068Z,5.57
2018-04-25T02:16:29.123Z,4.77
2018-04-25T02:18:58.173Z,5.20
2018-04-25T02:21:27.229Z,4.43
2018-04-25T02:23:56.281Z,5.30
2018-04-25T02:26:25.340Z,5.50
2018-04-25T02:28:54.391Z,5.60
2018-04-25T02:31:23.426Z,6.23
2018-04-25T02:33:52.481Z,5.20
2018-04-25T02:36:21.599Z,5.50
2018-04-25T02:38:51.725Z,5.68
2018-04-25T02:41:20.804Z,6.27
2018-04-25T02:43:49.837Z,5.67
2018-04-25T02:46:18.976Z,6.20
2018-04-25T02:48:48.088Z,5.33
2018-04-25T02:56:39.974Z,6.30
2018-04-25T02:59:09.018Z,6.18
2018-04-25T03:01:38.073Z,6.10
2018-04-25T03:04:07.305Z,5.57
2018-04-25T03:06:36.350Z,5.90
2018-04-25T03:09:05.451Z,5.60
2018-04-25T03:11:34.531Z,4.97
2018-04-25T03:14:03.588Z,7.10
2018-04-25T03:16:32.701Z,6.10
2018-04-25T03:19:01.749Z,5.70
2018-04-25T03:21:30.801Z,5.30
2018-04-25T03:23:59.864Z,4.90
2018-04-25T03:26:28.923Z,5.47
2018-04-25T03:28:57.984Z,5.17
2018-04-25T03:31:27.079Z,5.40
2018-04-25T03:33:56.101Z,5.93
2018-04-25T03:36:25.147Z,5.97
2018-04-25T03:38:54.290Z,5.93
2018-04-25T03:41:23.351Z,6.82
2018-04-25T03:43:52.396Z,6.85
2018-04-25T03:46:21.445Z,6.03
2018-04-25T03:48:50.492Z,5.03
2018-04-25T03:51:19.537Z,6.27
2018-04-25T03:53:48.692Z,5.63
2018-04-25T03:56:17.725Z,5.60
2018-04-25T04:01:22.466Z,6.85
2018-04-25T04:03:51.531Z,6.30
2018-04-25T04:06:20.681Z,5.50
2018-04-25T04:08:49.750Z,6.07
2018-04-25T04:11:18.808Z,7.68
2018-04-25T04:13:48.954Z,6.70
2018-04-25T04:16:18.324Z,6.10
2018-04-25T04:18:50.304Z,6.13
2018-04-25T04:21:19.366Z,7.20
2018-04-25T04:26:24.186Z,7.20
2018-04-25T04:28:54.264Z,6.80
2018-04-25T04:31:23.544Z,7.53
2018-04-25T04:33:52.665Z,5.70
2018-04-25T04:36:21.728Z,6.20
2018-04-25T04:38:51.917Z,5.73
2018-04-25T04:41:28.171Z,6.93
2018-04-25T04:43:58.372Z,5.70
2018-04-25T04:46:27.437Z,6.27
2018-04-25T04:48:57.411Z,6.03
2018-04-25T04:51:26.884Z,6.70
2018-04-25T04:53:57.590Z,6.00
2018-04-25T04:56:26.660Z,6.27
2018-04-25T04:58:55.731Z,6.43
2018-04-25T05:01:24.807Z,6.50
2018-04-25T05:03:54.782Z,6.30
2018-04-25T05:06:24.091Z,6.53
2018-04-25T05:08:53.147Z,5.87
2018-04-25T05:11:22.299Z,6.83
2018-04-25T05:13:51.737Z,7.80
2018-04-25T05:16:20.799Z,7.57
2018-04-25T05:18:50.396Z,7.10
2018-04-25T05:21:20.887Z,6.70
2018-04-25T05:26:27.940Z,7.37
2018-04-25T05:28:57.377Z,7.57
2018-04-25T05:31:26.432Z,6.00
2018-04-25T05:33:56.105Z,7.23
2018-04-25T05:36:25.270Z,8.03
2018-04-25T05:38:54.337Z,6.87
2018-04-25T05:41:23.692Z,7.10
2018-04-25T05:43:52.725Z,6.67
2018-04-25T05:46:22.223Z,7.47
2018-04-25T05:48:51.298Z,7.82
2018-04-25T05:51:20.347Z,5.70
2018-04-25T05:56:25.705Z,7.53
2018-04-25T05:58:54.771Z,5.83
2018-04-25T06:01:23.816Z,5.47
2018-04-25T06:06:28.585Z,6.57
2018-04-25T06:08:58.997Z,6.20
2018-04-25T06:11:28.064Z,5.80
2018-04-25T06:13:57.507Z,5.27
2018-04-25T06:16:26.554Z,5.90
2018-04-25T06:18:55.618Z,5.43
2018-04-25T06:21:25.589Z,5.80
2018-04-25T06:23:54.649Z,5.83
2018-04-25T06:26:23.694Z,5.13
2018-04-25T06:28:52.896Z,5.27
2018-04-25T06:31:21.938Z,4.47
2018-04-25T06:33:51.020Z,6.23
2018-04-25T06:38:55.802Z,5.50
2018-04-25T06:41:25.792Z,4.53
2018-04-25T06:43:55.028Z,5.50
2018-04-25T06:46:24.110Z,5.30
2018-04-25T06:48:53.241Z,4.53
2018-04-25T06:51:22.586Z,4.47
2018-04-25T06:53:51.614Z,4.60
2018-04-25T06:56:21.624Z,4.82
2018-04-25T06:58:50.657Z,4.40
2018-04-25T07:01:21.659Z,4.93
2018-04-25T07:06:26.435Z,5.30
2018-04-25T07:09:05.582Z,4.70
2018-04-25T07:11:35.811Z,4.90
2018-04-25T07:14:05.320Z,4.73
2018-04-25T07:16:34.758Z,5.20
2018-04-25T07:19:03.802Z,4.78
2018-04-25T07:21:33.269Z,5.05
2018-04-25T07:24:02.367Z,4.93
2018-04-25T07:26:32.303Z,4.23
2018-04-25T07:29:01.356Z,4.20
2018-04-25T07:31:30.918Z,4.83
2018-04-25T07:33:59.971Z,5.20
2018-04-25T07:36:29.778Z,4.70
2018-04-25T07:38:58.826Z,4.60
2018-04-25T07:41:27.878Z,4.17
2018-04-25T07:43:57.093Z,4.00
2018-04-25T07:46:26.118Z,5.60
2018-04-25T07:48:55.315Z,4.80
2018-04-25T07:51:24.364Z,5.27
2018-04-25T07:56:29.215Z,4.90
2018-04-25T07:58:58.266Z,4.68
2018-04-25T08:04:03.052Z,4.80
2018-04-25T08:06:32.670Z,5.10
2018-04-25T08:09:01.762Z,4.10
2018-04-25T08:14:24.361Z,4.72
2018-04-25T08:23:04.983Z,4.95
2018-04-25T08:28:09.965Z,5.07
2018-04-25T08:30:40.425Z,4.85
2018-04-25T08:33:19.182Z,4.00
2018-04-25T08:35:48.996Z,4.70
2018-04-25T08:38:18.050Z,5.17
2018-04-25T08:40:47.766Z,5.17
2018-04-25T08:43:16.878Z,4.82
2018-04-25T08:45:46.619Z,4.80
2018-04-25T08:48:15.796Z,4.20
2018-04-25T08:50:45.421Z,4.10
2018-04-25T08:53:15.440Z,4.70
2018-04-25T08:55:44.500Z,4.30
2018-04-25T08:58:15.034Z,3.93
2018-04-25T09:00:44.071Z,4.90
2018-04-25T09:03:15.512Z,4.30
2018-04-25T09:05:45.622Z,3.20
2018-04-25T09:08:14.660Z,3.90
2018-04-25T09:13:20.406Z,4.50
2018-04-25T09:18:25.199Z,4.07
2018-04-25T09:20:54.886Z,4.30
2018-04-25T09:26:00.248Z,3.83
2018-04-25T09:28:29.302Z,3.70
2018-04-25T09:30:58.856Z,3.67
2018-04-25T09:33:27.910Z,3.90
2018-04-25T09:36:05.147Z,4.17
2018-04-25T09:38:37.338Z,3.63
2018-04-25T09:41:06.796Z,3.60
2018-04-25T09:43:35.837Z,3.53
2018-04-25T09:46:04.964Z,3.93
2018-04-25T09:48:34.070Z,2.70
2018-04-25T09:51:03.098Z,4.40
2018-04-25T09:53:32.533Z,3.92
2018-04-25T09:56:01.620Z,3.50
2018-04-25T09:58:31.023Z,3.60
2018-04-25T10:01:00.072Z,3.50
2018-04-25T10:03:30.319Z,4.30
2018-04-25T10:05:59.374Z,3.53
2018-04-25T10:08:28.435Z,3.43
2018-04-25T10:10:57.589Z,3.63
2018-04-25T10:13:26.541Z,3.97
2018-04-25T10:15:56.777Z,3.67
2018-04-25T10:18:25.837Z,3.93
2018-04-25T10:20:55.321Z,3.93
2018-04-25T10:23:24.379Z,3.78
2018-04-25T10:25:53.721Z,4.03
2018-04-25T10:28:22.753Z,4.07
2018-04-25T10:30:52.404Z,3.47
2018-04-25T10:35:57.279Z,3.78
2018-04-25T10:38:26.324Z,4.40
2018-04-25T10:40:55.387Z,3.10
2018-04-25T10:43:24.453Z,3.30
2018-04-25T10:48:29.877Z,4.22
2018-04-25T10:50:58.945Z,3.70
2018-04-25T10:53:28.271Z,4.10
2018-04-25T10:55:57.325Z,4.27
2018-04-25T10:58:27.012Z,3.97
2018-04-25T11:00:56.473Z,3.90
2018-04-25T11:03:26.318Z,3.70
2018-04-25T11:05:55.362Z,4.77
2018-04-25T11:08:24.476Z,4.07
2018-04-25T11:10:53.507Z,3.80
2018-04-25T11:15:58.331Z,4.28
2018-04-25T11:18:27.922Z,4.05
2018-04-25T11:21:05.515Z,4.20
2018-04-25T11:23:35.450Z,3.73
2018-04-25T11:26:04.498Z,4.00
2018-04-25T11:28:34.131Z,5.07
2018-04-25T11:31:03.189Z,4.10
2018-04-25T11:33:32.834Z,4.20
2018-04-25T11:36:01.897Z,3.70
2018-04-25T11:38:30.935Z,3.83
2018-04-25T11:41:00.416Z,4.37
2018-04-25T11:43:29.505Z,3.40
2018-04-25T11:45:59.017Z,3.43
2018-04-25T11:48:28.162Z,4.90
2018-04-25T11:50:57.335Z,4.57
2018-04-25T11:53:26.409Z,3.72
2018-04-25T11:55:55.463Z,4.03
2018-04-25T11:58:24.537Z,3.80
2018-04-25T12:03:29.327Z,4.05
2018-04-25T12:05:59.566Z,4.45
2018-04-25T12:08:28.624Z,3.97
2018-04-25T12:10:57.674Z,3.93
2018-04-25T12:13:27.497Z,3.90
2018-04-25T12:15:56.589Z,4.13
2018-04-25T12:18:26.102Z,3.53
2018-04-25T12:20:55.161Z,3.97
2018-04-25T12:23:24.224Z,3.37
2018-04-25T12:25:54.741Z,3.40
2018-04-25T12:31:00.282Z,3.65
2018-04-25T12:33:29.909Z,3.47
2018-04-25T12:35:58.968Z,3.53
2018-04-25T12:38:28.014Z,3.60
2018-04-25T12:40:58.368Z,4.27
2018-04-25T12:43:27.502Z,4.30
2018-04-25T12:45:57.195Z,3.83
2018-04-25T12:51:02.149Z,4.07
2018-04-25T12:53:31.190Z,3.43
2018-04-25T12:56:00.254Z,3.60
2018-04-25T12:58:29.300Z,4.67
2018-04-25T13:00:59.255Z,3.93
2018-04-25T13:06:04.638Z,3.80
2018-04-25T13:08:33.653Z,3.77
2018-04-25T13:11:05.522Z,4.07
2018-04-25T13:13:34.761Z,4.63
2018-04-25T13:16:03.876Z,4.23
2018-04-25T13:18:32.969Z,4.40
2018-04-25T13:21:02.437Z,3.90
2018-04-25T13:23:31.479Z,4.10
2018-04-25T13:26:00.526Z,3.80
2018-04-25T13:28:30.313Z,3.73
2018-04-25T13:30:59.361Z,4.50
2018-04-25T13:33:28.410Z,4.30
2018-04-25T13:35:57.648Z,3.93
2018-04-25T13:38:26.720Z,3.03
2018-04-25T13:40:56.677Z,4.03
2018-04-25T13:43:25.741Z,4.60
2018-04-25T13:45:54.787Z,3.50
2018-04-25T13:48:23.844Z,4.37
2018-04-25T13:53:34.600Z,5.07
2018-04-25T13:56:06.775Z,4.28
2018-04-25T14:01:11.913Z,4.20
2018-04-25T14:03:40.990Z,4.10
2018-04-25T14:06:10.047Z,4.80
2018-04-25T14:08:39.642Z,4.50
2018-04-25T14:11:08.694Z,3.97
2018-04-25T14:13:37.750Z,4.27
2018-04-25T14:16:06.812Z,4.10
2018-04-25T14:18:35.858Z,4.53
2018-04-25T14:21:04.919Z,3.70
2018-04-25T14:23:34.904Z,4.13
2018-04-25T14:26:03.995Z,4.00
2018-04-25T14:28:33.629Z,3.70
2018-04-25T14:31:02.687Z,3.90
2018-04-25T14:33:31.750Z,4.40
2018-04-25T14:36:00.857Z,4.20
2018-04-25T14:38:29.926Z,4.32
2018-04-25T14:40:59.909Z,4.18
2018-04-25T14:43:28.975Z,4.50
2018-04-25T14:45:58.014Z,4.53
2018-04-25T14:48:27.204Z,4.33
2018-04-25T14:50:56.238Z,3.80
2018-04-25T14:56:01.495Z,4.35
2018-04-25T14:58:30.609Z,3.93
2018-04-25T15:00:59.679Z,4.70
2018-04-25T15:03:29.307Z,4.07
2018-04-25T15:05:58.373Z,3.90
2018-04-25T15:08:28.027Z,3.93
2018-04-25T15:10:57.109Z,3.97
2018-04-25T15:13:26.166Z,5.47
2018-04-25T15:15:55.638Z,4.60
2018-04-25T15:18:24.673Z,4.77
2018-04-25T15:20:53.746Z,4.72
2018-04-25T15:23:22.944Z,4.33
2018-04-25T15:25:51.974Z,4.60
2018-04-25T15:30:57.291Z,4.30
2018-04-25T15:33:26.355Z,5.00
2018-04-25T15:35:55.396Z,4.80
2018-04-25T15:38:24.917Z,4.20
2018-04-25T15:40:53.958Z,4.47
2018-04-25T15:43:23.460Z,4.70
2018-04-25T15:48:28.815Z,5.00
2018-04-25T15:50:57.892Z,4.90
2018-04-25T15:53:26.946Z,3.70
2018-04-25T15:55:56.254Z,3.60
2018-04-25T15:58:25.312Z,4.33
2018-04-25T16:00:54.351Z,3.97
2018-04-25T16:03:23.397Z,5.57
2018-04-25T16:05:52.470Z,6.13
2018-04-25T16:08:21.514Z,4.60
2018-04-25T16:10:50.981Z,4.80
2018-04-25T16:13:20.296Z,4.70
2018-04-25T16:15:49.422Z,4.40
2018-04-25T16:18:18.924Z,4.20
2018-04-25T16:20:47.966Z,4.67
2018-04-25T16:23:17.028Z,4.20
2018-04-25T16:25:46.857Z,5.10
2018-04-25T16:28:15.913Z,4.87
2018-04-25T16:30:44.980Z,5.13
2018-04-25T16:33:14.145Z,4.97
2018-04-25T16:38:18.930Z,4.80
2018-04-25T16:40:48.490Z,4.70
2018-04-25T16:43:17.518Z,5.13
2018-04-25T16:48:22.355Z,6.22
2018-04-25T16:50:51.418Z,5.40
2018-04-25T16:53:21.165Z,5.00
2018-04-25T16:55:50.224Z,5.57
2018-04-25T16:58:19.279Z,5.30
2018-04-25T17:03:24.652Z,5.80
2018-04-25T17:08:29.922Z,5.60
2018-04-25T17:10:58.999Z,5.57
2018-04-25T17:13:28.583Z,5.53
2018-04-25T17:15:57.650Z,4.90
2018-04-25T17:18:26.711Z,4.43
2018-04-25T17:20:55.746Z,4.50
2018-04-25T17:26:02.070Z,4.78
2018-04-25T17:28:31.122Z,5.93
2018-04-25T17:31:00.174Z,5.57
2018-04-25T17:33:29.629Z,4.60
2018-04-25T17:35:58.685Z,4.70
2018-04-25T17:38:28.702Z,5.23
2018-04-25T17:40:58.276Z,4.83
2018-04-25T17:43:27.440Z,4.63
2018-04-25T17:45:56.479Z,4.90
2018-04-25T17:48:25.630Z,5.97
2018-04-25T17:50:54.691Z,4.50
2018-04-25T17:53:23.734Z,4.00
2018-04-25T17:55:53.072Z,4.10
2018-04-25T17:58:22.114Z,4.50
2018-04-25T18:01:00.770Z,5.00
2018-04-25T18:03:29.880Z,4.40
2018-04-25T18:05:58.926Z,4.30
2018-04-25T18:11:04.717Z,5.12
2018-04-25T18:13:33.834Z,5.00
2018-04-25T18:16:03.182Z,4.63
2018-04-25T18:18:35.629Z,5.50
2018-04-25T18:21:04.755Z,4.20
2018-04-25T18:23:33.797Z,4.63
2018-04-25T18:26:03.737Z,4.73
2018-04-25T18:28:33.776Z,4.90
2018-04-25T18:31:03.733Z,4.20
2018-04-25T18:33:32.987Z,4.27
2018-04-25T18:36:02.015Z,4.90
2018-04-25T18:38:31.080Z,4.87
2018-04-25T18:41:00.129Z,5.20
2018-04-25T18:43:29.350Z,4.70
2018-04-25T18:45:58.393Z,4.80
2018-04-25T18:48:27.523Z,4.70
2018-04-25T18:50:56.676Z,4.77
2018-04-25T18:53:25.735Z,5.40
2018-04-25T18:55:54.804Z,5.40
2018-04-25T18:58:23.858Z,5.07
2018-04-25T19:00:52.930Z,5.70
2018-04-25T19:03:21.984Z,5.47
2018-04-25T19:05:51.240Z,5.70
2018-04-25T19:08:20.297Z,5.43
2018-04-25T19:10:50.245Z,4.53
2018-04-25T19:13:19.340Z,5.73
2018-04-25T19:15:48.410Z,5.67
2018-04-25T19:18:17.474Z,5.13
2018-04-25T19:20:46.549Z,5.20
2018-04-25T19:23:15.598Z,5.10
2018-04-25T19:25:44.982Z,4.83
2018-04-25T19:28:14.063Z,4.60
2018-04-25T19:33:18.404Z,5.20
2018-04-25T19:35:47.496Z,4.37
2018-04-25T19:38:16.560Z,4.67
2018-04-25T19:40:45.822Z,5.67
2018-04-25T19:43:14.981Z,4.97
2018-04-25T19:45:44.019Z,4.87
2018-04-25T19:48:13.242Z,4.30
2018-04-25T19:50:42.466Z,5.80
2018-04-25T19:53:11.579Z,5.70
2018-04-25T19:55:40.772Z,5.40
2018-04-25T20:00:45.627Z,5.60
2018-04-25T20:03:14.802Z,5.87
2018-04-25T20:05:43.850Z,5.62
2018-04-25T20:08:12.889Z,5.20
2018-04-25T20:10:41.954Z,5.43
2018-04-25T20:13:11.110Z,5.90
2018-04-25T20:15:40.255Z,4.80
2018-04-25T20:18:09.502Z,5.37
2018-04-25T20:20:38.605Z,5.10
2018-04-25T20:23:07.674Z,5.20
2018-04-25T20:25:37.427Z,5.57
2018-04-25T20:28:06.858Z,5.50
2018-04-25T20:30:35.927Z,4.87
2018-04-25T20:33:04.979Z,4.77
2018-04-25T20:35:34.143Z,5.50
2018-04-25T20:38:03.208Z,5.20
2018-04-25T20:40:32.264Z,5.60
2018-04-25T20:45:37.073Z,26.03
2018-04-25T20:48:06.197Z,7.50
2018-04-25T20:50:35.382Z,7.00
2018-04-25T20:53:06.418Z,5.80
2018-04-25T20:55:35.471Z,5.77
2018-04-25T20:58:04.562Z,5.87
2018-04-25T21:00:33.623Z,5.90
2018-04-25T21:03:03.072Z,7.30
2018-04-25T21:05:32.120Z,7.75
2018-04-25T21:08:01.204Z,7.53
2018-04-25T21:10:30.333Z,8.70
2018-04-25T21:12:59.654Z,8.85
2018-04-25T21:15:34.562Z,6.68
2018-04-25T21:18:03.973Z,6.83
2018-04-25T21:20:33.041Z,8.00
2018-04-25T21:23:02.180Z,6.23
2018-04-25T21:25:31.234Z,7.23
2018-04-25T21:28:00.399Z,6.77
2018-04-25T21:33:05.273Z,8.60
2018-04-25T21:38:10.330Z,8.88
2018-04-25T21:40:39.402Z,8.27
2018-04-25T21:43:14.953Z,7.27
2018-04-25T21:45:44.112Z,8.53
2018-04-25T21:50:48.972Z,10.70
2018-04-25T21:53:18.309Z,9.50
2018-04-25T21:55:47.414Z,9.10
2018-04-25T21:58:16.455Z,7.33
2018-04-25T22:00:45.724Z,8.60
2018-04-25T22:03:29.103Z,10.40
2018-04-25T22:05:59.005Z,9.33
2018-04-25T22:08:28.059Z,7.87
2018-04-25T22:10:57.277Z,8.40
2018-04-25T22:13:26.352Z,9.17
2018-04-25T22:15:55.396Z,8.83
2018-04-25T22:18:24.492Z,9.40
2018-04-25T22:20:53.715Z,9.30
2018-04-25T22:23:26.203Z,8.70
2018-04-25T22:25:56.293Z,9.27
2018-04-25T22:28:25.355Z,11.20
2018-04-25T22:30:54.422Z,11.17
2018-04-25T22:33:23.486Z,10.07
2018-04-25T22:35:52.561Z,9.30
2018-04-25T22:38:21.645Z,9.03
2018-04-25T22:40:50.699Z,8.13
2018-04-25T22:43:19.791Z,10.70
2018-04-25T22:45:48.922Z,9.30
2018-04-25T22:50:53.762Z,10.87
2018-04-25T22:53:22.925Z,11.27
2018-04-25T22:55:51.990Z,12.25
2018-04-25T22:58:21.046Z,9.83
2018-04-25T23:00:50.424Z,10.27
2018-04-25T23:03:19.543Z,10.37
2018-04-25T23:05:48.641Z,10.70
2018-04-25T23:10:53.463Z,12.10
2018-04-25T23:13:22.557Z,11.57
2018-04-25T23:16:06.556Z,10.65
2018-04-25T23:18:36.380Z,9.40
2018-04-25T23:21:05.730Z,10.20
2018-04-25T23:23:34.804Z,9.43
2018-04-25T23:28:39.650Z,10.03
2018-04-25T23:31:08.761Z,10.50
2018-04-25T23:33:37.838Z,9.95
2018-04-25T23:36:06.906Z,8.60
2018-04-25T23:41:16.677Z,10.97
2018-04-25T23:43:45.967Z,11.40
2018-04-25T23:46:15.002Z,8.70
2018-04-25T23:51:20.829Z,10.80
2018-04-25T23:53:50.050Z,10.73
2018-04-25T23:58:55.433Z,12.07
